createdAt,value
2023-03-12T00:00:27.560Z,1.60
2023-03-12T00:02:56.442Z,1.80
2023-03-12T00:05:25.802Z,1.50
2023-03-12T00:07:59.652Z,1.30
2023-03-12T00:10:27.804Z,1.80
2023-03-12T00:12:56.076Z,2.00
2023-03-12T00:15:24.424Z,1.80
2023-03-12T00:17:52.566Z,1.60
2023-03-12T00:20:22.037Z,1.40
2023-03-12T00:22:50.148Z,1.40
2023-03-12T00:25:21.112Z,1.40
2023-03-12T00:27:49.111Z,1.50
2023-03-12T00:30:17.429Z,1.50
2023-03-12T00:32:45.533Z,1.60
2023-03-12T00:35:13.836Z,1.60
2023-03-12T00:37:41.948Z,1.40
2023-03-12T00:40:11.452Z,1.30
2023-03-12T00:42:41.116Z,1.50
2023-03-12T00:45:09.890Z,1.30
2023-03-12T00:47:37.935Z,1.40
2023-03-12T00:50:06.923Z,1.30
2023-03-12T00:52:34.964Z,1.10
2023-03-12T00:55:02.999Z,1.30
2023-03-12T00:57:31.078Z,1.20
2023-03-12T01:00:00.567Z,1.00
2023-03-12T01:02:28.820Z,1.40
2023-03-12T01:04:57.428Z,1.60
2023-03-12T01:07:26.629Z,1.30
2023-03-12T01:09:54.730Z,1.80
2023-03-12T01:12:22.755Z,1.80
2023-03-12T01:14:51.046Z,1.60
2023-03-12T01:17:20.508Z,1.60
2023-03-12T01:19:49.064Z,1.40
2023-03-12T01:22:17.123Z,1.30
2023-03-12T01:24:45.135Z,1.40
2023-03-12T01:27:13.211Z,1.40
2023-03-12T01:29:41.469Z,1.50
2023-03-12T01:32:09.632Z,1.40
2023-03-12T01:34:39.017Z,1.30
2023-03-12T01:37:08.567Z,1.40
2023-03-12T01:39:36.855Z,1.50
2023-03-12T01:42:05.424Z,1.60
2023-03-12T01:44:55.413Z,1.80
2023-03-12T01:47:24.051Z,1.60
2023-03-12T01:49:56.642Z,1.70
2023-03-12T01:52:28.557Z,1.70
2023-03-12T01:55:02.617Z,1.80
2023-03-12T01:57:35.683Z,1.60
2023-03-12T02:00:08.882Z,1.60
2023-03-12T02:02:44.902Z,1.60
2023-03-12T02:05:21.687Z,1.60
2023-03-12T02:07:50.317Z,1.70
2023-03-12T02:10:18.946Z,1.60
2023-03-12T02:12:47.167Z,1.60
2023-03-12T02:15:15.393Z,1.70
2023-03-12T02:17:43.669Z,2.00
2023-03-12T02:20:18.283Z,2.00
2023-03-12T02:22:55.139Z,2.20
2023-03-12T02:25:31.228Z,2.40
2023-03-12T02:28:01.693Z,2.40
2023-03-12T02:30:32.588Z,2.20
2023-03-12T02:33:06.066Z,1.90
2023-03-12T02:35:34.579Z,2.20
2023-03-12T02:38:02.952Z,2.10
2023-03-12T02:40:37.902Z,1.90
2023-03-12T02:43:07.805Z,1.90
2023-03-12T02:45:37.062Z,1.90
2023-03-12T02:48:07.708Z,1.80
2023-03-12T02:50:35.859Z,1.90
2023-03-12T02:53:04.844Z,1.70
2023-03-12T02:55:34.458Z,1.80
2023-03-12T02:58:02.794Z,1.70
2023-03-12T03:00:32.296Z,1.60
2023-03-12T03:03:02.312Z,1.60
2023-03-12T03:05:31.413Z,1.50
2023-03-12T03:07:59.452Z,1.40
2023-03-12T03:10:28.656Z,1.40
2023-03-12T03:12:58.773Z,1.60
2023-03-12T03:15:27.544Z,1.50
2023-03-12T03:17:55.740Z,1.40
2023-03-12T03:20:26.025Z,1.30
2023-03-12T03:22:54.127Z,1.20
2023-03-12T03:25:23.593Z,1.20
2023-03-12T03:27:52.134Z,1.40
2023-03-12T03:30:22.305Z,1.20
2023-03-12T03:32:52.427Z,1.10
2023-03-12T03:35:22.144Z,1.00
2023-03-12T03:37:50.373Z,0.90
2023-03-12T03:40:19.314Z,0.90
2023-03-12T03:42:47.444Z,0.90
2023-03-12T03:45:15.621Z,0.80
2023-03-12T03:47:46.935Z,0.80
2023-03-12T03:50:15.170Z,0.80
2023-03-12T03:52:43.328Z,0.80
2023-03-12T03:55:11.750Z,0.80
2023-03-12T03:57:40.489Z,0.70
2023-03-12T04:00:13.108Z,0.70
2023-03-12T04:02:47.170Z,0.70
2023-03-12T04:05:19.684Z,0.70
2023-03-12T04:07:49.481Z,0.70
2023-03-12T04:10:21.724Z,0.70
2023-03-12T04:12:50.036Z,0.70
2023-03-12T04:15:18.798Z,0.90
2023-03-12T04:17:48.785Z,0.90
2023-03-12T04:20:17.411Z,0.90
2023-03-12T04:22:45.565Z,1.30
2023-03-12T04:25:13.651Z,1.10
2023-03-12T04:27:41.780Z,1.30
2023-03-12T04:30:11.407Z,1.10
2023-03-12T04:32:40.180Z,0.90
2023-03-12T04:35:10.152Z,0.80
2023-03-12T04:37:38.262Z,0.90
2023-03-12T04:40:07.914Z,0.80
2023-03-12T04:42:36.672Z,0.80
2023-03-12T04:45:06.258Z,0.70
2023-03-12T04:47:35.395Z,0.70
2023-03-12T04:50:04.344Z,0.70
2023-03-12T04:52:34.401Z,0.80
2023-03-12T04:55:03.108Z,0.90
2023-03-12T04:57:31.291Z,0.90
2023-03-12T04:59:59.489Z,0.90
2023-03-12T05:02:27.946Z,0.80
2023-03-12T05:04:57.712Z,0.80
2023-03-12T05:07:26.417Z,0.70
2023-03-12T05:09:56.309Z,0.60
2023-03-12T05:12:24.497Z,0.70
2023-03-12T05:14:52.718Z,0.60
2023-03-12T05:17:21.030Z,0.70
2023-03-12T05:19:49.080Z,0.60
2023-03-12T05:22:17.174Z,0.50
2023-03-12T05:24:45.490Z,0.50
2023-03-12T05:27:14.906Z,0.40
2023-03-12T05:29:42.964Z,0.40
2023-03-12T05:32:11.151Z,0.50
2023-03-12T05:34:39.213Z,0.50
2023-03-12T05:37:07.667Z,0.50
2023-03-12T05:39:35.916Z,0.50
2023-03-12T05:42:06.672Z,0.60
2023-03-12T05:44:36.619Z,0.60
2023-03-12T05:47:04.768Z,0.60
2023-03-12T05:49:32.905Z,0.60
2023-03-12T05:52:01.030Z,0.60
2023-03-12T05:54:29.438Z,0.60
2023-03-12T05:56:57.818Z,0.60
2023-03-12T05:59:27.583Z,0.60
2023-03-12T06:01:58.436Z,0.60
2023-03-12T06:04:27.320Z,0.60
2023-03-12T06:06:59.785Z,0.60
2023-03-12T06:09:28.292Z,0.60
2023-03-12T06:11:56.851Z,0.60
2023-03-12T06:14:25.591Z,0.60
2023-03-12T06:16:53.747Z,0.60
2023-03-12T06:19:23.265Z,0.60
2023-03-12T06:21:51.725Z,0.60
2023-03-12T06:24:20.274Z,0.60
2023-03-12T06:26:56.011Z,0.60
2023-03-12T06:29:24.045Z,0.60
2023-03-12T06:31:52.361Z,0.60
2023-03-12T06:34:20.512Z,0.70
2023-03-12T06:36:50.120Z,0.70
2023-03-12T06:39:18.387Z,0.70
2023-03-12T06:41:46.450Z,0.70
2023-03-12T06:44:14.553Z,0.70
2023-03-12T06:46:44.219Z,0.70
2023-03-12T06:49:12.660Z,0.70
2023-03-12T06:51:40.731Z,0.80
2023-03-12T06:54:10.145Z,0.80
2023-03-12T06:56:38.305Z,0.80
2023-03-12T06:59:06.637Z,0.80
2023-03-12T07:01:34.773Z,0.80
2023-03-12T07:04:02.836Z,0.90
2023-03-12T07:06:30.853Z,0.90
2023-03-12T07:08:58.973Z,0.90
2023-03-12T07:11:28.416Z,0.90
2023-03-12T07:13:57.315Z,0.90
2023-03-12T07:16:25.405Z,1.00
2023-03-12T07:18:53.512Z,1.00
2023-03-12T07:21:23.622Z,1.10
2023-03-12T07:23:51.942Z,1.10
2023-03-12T07:26:20.810Z,1.10
2023-03-12T07:28:50.396Z,1.10
2023-03-12T07:31:18.557Z,1.20
2023-03-12T07:33:46.741Z,1.30
2023-03-12T07:36:15.017Z,1.30
2023-03-12T07:38:43.166Z,1.30
2023-03-12T07:41:11.290Z,1.30
2023-03-12T07:43:39.491Z,1.30
2023-03-12T07:46:08.903Z,1.30
2023-03-12T07:48:36.936Z,1.40
2023-03-12T07:51:05.375Z,1.40
2023-03-12T07:53:33.485Z,1.50
2023-03-12T07:56:01.633Z,1.50
2023-03-12T07:58:29.906Z,1.60
2023-03-12T08:00:58.267Z,1.70
2023-03-12T08:03:27.721Z,1.80
2023-03-12T08:06:00.958Z,1.80
2023-03-12T08:08:29.534Z,1.90
2023-03-12T08:10:57.802Z,1.90
2023-03-12T08:13:26.185Z,1.80
2023-03-12T08:15:55.096Z,1.80
2023-03-12T08:18:24.701Z,1.80
2023-03-12T08:20:55.223Z,1.80
2023-03-12T08:23:23.731Z,1.70
2023-03-12T08:25:52.199Z,1.80
2023-03-12T08:28:21.185Z,1.80
2023-03-12T08:30:50.338Z,1.90
2023-03-12T08:33:18.578Z,1.90
2023-03-12T08:35:47.160Z,1.90
2023-03-12T08:38:16.689Z,2.00
2023-03-12T08:40:44.941Z,2.10
2023-03-12T08:43:12.989Z,2.20
2023-03-12T08:45:41.190Z,2.30
2023-03-12T08:48:09.381Z,2.40
2023-03-12T08:50:37.518Z,2.40
2023-03-12T08:53:05.564Z,2.50
2023-03-12T08:55:34.959Z,2.50
2023-03-12T08:58:03.011Z,2.50
2023-03-12T09:00:31.121Z,2.50
2023-03-12T09:02:59.213Z,2.60
2023-03-12T09:05:30.018Z,2.60
2023-03-12T09:07:58.313Z,2.60
2023-03-12T09:10:30.650Z,2.70
2023-03-12T09:13:00.449Z,2.80
2023-03-12T09:15:28.871Z,2.80
2023-03-12T09:17:57.388Z,3.00
2023-03-12T09:20:26.262Z,3.30
2023-03-12T09:22:54.325Z,3.40
2023-03-12T09:25:23.314Z,3.50
2023-03-12T09:27:51.451Z,3.30
2023-03-12T09:30:25.081Z,3.40
2023-03-12T09:32:53.556Z,3.40
2023-03-12T09:35:21.734Z,3.50
2023-03-12T09:37:51.650Z,3.60
2023-03-12T09:40:23.252Z,3.60
2023-03-12T09:42:54.788Z,3.70
2023-03-12T09:45:27.103Z,3.90
2023-03-12T09:47:58.103Z,4.00
2023-03-12T09:50:29.402Z,4.00
2023-03-12T09:53:02.023Z,4.10
2023-03-12T09:55:36.414Z,4.20
2023-03-12T09:58:05.031Z,4.30
2023-03-12T10:00:37.055Z,4.40
2023-03-12T10:03:23.929Z,4.40
2023-03-12T10:06:07.597Z,4.50
2023-03-12T10:08:48.092Z,4.40
2023-03-12T10:11:23.621Z,4.50
2023-03-12T10:14:03.520Z,4.70
2023-03-12T10:16:43.956Z,4.80
2023-03-12T10:19:26.244Z,4.90
2023-03-12T10:22:00.630Z,5.00
2023-03-12T10:24:41.509Z,5.10
2023-03-12T10:27:15.490Z,5.00
2023-03-12T10:29:47.093Z,5.00
2023-03-12T10:32:21.739Z,5.10
2023-03-12T10:34:54.189Z,5.00
2023-03-12T10:37:25.751Z,5.00
2023-03-12T10:39:55.760Z,5.10
2023-03-12T10:42:26.037Z,5.20
2023-03-12T10:44:57.201Z,5.20
2023-03-12T10:47:34.966Z,5.30
2023-03-12T10:50:18.618Z,5.20
2023-03-12T10:52:47.998Z,5.20
2023-03-12T10:55:23.606Z,5.20
2023-03-12T10:57:52.764Z,5.10
2023-03-12T11:00:23.319Z,5.20
2023-03-12T11:03:03.434Z,5.20
2023-03-12T11:05:34.199Z,5.20
2023-03-12T11:08:04.101Z,5.30
2023-03-12T11:10:45.070Z,5.30
2023-03-12T11:13:26.408Z,5.30
2023-03-12T11:15:55.661Z,5.20
2023-03-12T11:18:32.138Z,5.20
2023-03-12T11:21:15.540Z,5.10
2023-03-12T11:23:45.077Z,5.00
2023-03-12T11:26:17.653Z,4.90
2023-03-12T11:28:49.104Z,5.00
2023-03-12T11:31:26.290Z,4.90
2023-03-12T11:34:03.080Z,4.90
2023-03-12T11:36:44.416Z,4.90
2023-03-12T11:39:21.959Z,5.00
2023-03-12T11:42:08.195Z,5.00
2023-03-12T11:44:41.151Z,5.00
2023-03-12T11:47:25.355Z,4.90
2023-03-12T11:50:11.596Z,5.00
2023-03-12T11:52:57.607Z,4.90
2023-03-12T11:55:40.765Z,5.00
2023-03-12T11:58:33.274Z,5.10
2023-03-12T12:01:09.762Z,5.10
2023-03-12T12:04:01.969Z,5.20
2023-03-12T12:06:41.941Z,5.00
2023-03-12T12:09:20.035Z,4.70
2023-03-12T12:11:59.961Z,4.60
2023-03-12T12:14:50.762Z,4.60
2023-03-12T12:17:29.177Z,4.60
2023-03-12T12:20:18.229Z,4.60
2023-03-12T12:23:00.703Z,4.70
2023-03-12T12:26:07.220Z,4.70
2023-03-12T12:29:09.951Z,4.70
2023-03-12T12:31:46.365Z,4.50
2023-03-12T12:34:40.650Z,4.40
2023-03-12T12:37:25.614Z,4.30
2023-03-12T12:40:05.501Z,4.20
2023-03-12T12:42:37.554Z,4.20
2023-03-12T12:45:07.579Z,4.20
2023-03-12T12:47:41.571Z,4.10
2023-03-12T12:50:17.168Z,4.20
2023-03-12T12:52:46.311Z,4.20
2023-03-12T12:55:23.641Z,4.20
2023-03-12T12:57:57.953Z,4.20
2023-03-12T13:00:41.717Z,4.20
2023-03-12T13:03:15.341Z,4.30
2023-03-12T13:05:50.280Z,4.30
2023-03-12T13:08:36.629Z,4.20
2023-03-12T13:11:18.394Z,4.10
2023-03-12T13:13:51.324Z,4.20
2023-03-12T13:16:29.254Z,4.20
2023-03-12T13:18:59.235Z,4.20
2023-03-12T13:21:34.672Z,4.10
2023-03-12T13:24:17.117Z,4.10
2023-03-12T13:27:02.113Z,4.10
2023-03-12T13:29:41.923Z,4.10
2023-03-12T13:32:31.579Z,4.10
2023-03-12T13:34:59.867Z,4.10
2023-03-12T13:38:02.806Z,4.10
2023-03-12T13:41:06.343Z,4.10
2023-03-12T13:43:51.661Z,3.90
2023-03-12T13:46:41.421Z,3.80
2023-03-12T13:49:18.832Z,3.80
2023-03-12T13:52:03.748Z,3.80
2023-03-12T13:54:35.374Z,3.80
2023-03-12T13:57:11.159Z,3.80
2023-03-12T13:59:46.200Z,3.80
2023-03-12T14:02:24.288Z,3.80
2023-03-12T14:04:52.624Z,3.70
2023-03-12T14:07:43.040Z,3.70
2023-03-12T14:10:22.773Z,3.60
2023-03-12T14:13:00.104Z,3.60
2023-03-12T14:15:35.718Z,3.50
2023-03-12T14:18:12.722Z,3.50
2023-03-12T14:20:41.827Z,3.40
2023-03-12T14:23:16.260Z,3.30
2023-03-12T14:25:46.834Z,3.20
2023-03-12T14:28:18.182Z,3.30
2023-03-12T14:30:51.502Z,3.30
2023-03-12T14:33:20.264Z,3.30
2023-03-12T14:35:54.584Z,3.30
2023-03-12T14:38:28.886Z,3.30
2023-03-12T14:41:03.226Z,3.30
2023-03-12T14:43:32.860Z,3.30
2023-03-12T14:46:04.734Z,3.30
2023-03-12T14:48:34.677Z,3.30
2023-03-12T14:51:04.465Z,3.20
2023-03-12T14:53:33.929Z,3.30
2023-03-12T14:56:04.968Z,3.30
2023-03-12T14:58:33.864Z,3.20
2023-03-12T15:01:06.645Z,3.20
2023-03-12T15:03:42.024Z,3.30
2023-03-12T15:06:18.891Z,3.30
2023-03-12T15:08:47.411Z,3.30
2023-03-12T15:11:22.866Z,3.20
2023-03-12T15:13:52.073Z,3.20
2023-03-12T15:16:22.517Z,3.20
2023-03-12T15:18:51.300Z,3.20
2023-03-12T15:21:19.633Z,3.20
2023-03-12T15:23:49.408Z,3.20
2023-03-12T15:26:29.610Z,3.20
2023-03-12T15:28:59.420Z,3.20
2023-03-12T15:31:29.482Z,3.20
2023-03-12T15:34:03.216Z,3.20
2023-03-12T15:36:33.189Z,3.20
2023-03-12T15:39:05.528Z,3.20
2023-03-12T15:41:43.897Z,3.20
2023-03-12T15:44:19.952Z,3.20
2023-03-12T15:46:51.814Z,3.30
2023-03-12T15:49:24.761Z,3.30
2023-03-12T15:52:01.274Z,3.30
2023-03-12T15:54:31.466Z,3.20
2023-03-12T15:57:30.231Z,3.30
2023-03-12T16:00:22.131Z,3.40
2023-03-12T16:02:57.263Z,3.40
2023-03-12T16:16:38.234Z,3.40
2023-03-12T16:19:12.899Z,3.40
2023-03-12T16:21:41.295Z,3.30
2023-03-12T16:24:09.760Z,3.40
2023-03-12T16:26:43.522Z,3.40
2023-03-12T16:29:14.280Z,3.40
2023-03-12T16:31:42.422Z,3.40
2023-03-12T16:34:12.557Z,3.40
2023-03-12T16:36:40.787Z,3.40
2023-03-12T16:39:08.820Z,3.40
2023-03-12T16:41:36.900Z,3.50
2023-03-12T16:44:07.393Z,3.50
2023-03-12T16:46:44.881Z,3.50
2023-03-12T16:49:16.556Z,3.50
2023-03-12T16:51:44.716Z,3.50
2023-03-12T16:54:13.065Z,3.50
2023-03-12T16:56:45.794Z,3.50
2023-03-12T16:59:23.220Z,3.60
2023-03-12T17:01:51.634Z,3.60
2023-03-12T17:04:21.194Z,3.60
2023-03-12T17:06:49.332Z,3.70
2023-03-12T17:09:17.402Z,3.70
2023-03-12T17:11:46.291Z,3.70
2023-03-12T17:14:19.146Z,3.70
2023-03-12T17:16:47.235Z,3.70
2023-03-12T17:19:15.855Z,3.90
2023-03-12T17:21:45.539Z,4.00
2023-03-12T17:24:15.077Z,4.10
2023-03-12T17:26:45.300Z,4.10
2023-03-12T17:29:13.538Z,4.20
2023-03-12T17:31:41.611Z,4.20
2023-03-12T17:34:09.652Z,4.30
2023-03-12T17:36:38.438Z,4.30
2023-03-12T17:39:07.928Z,4.30
2023-03-12T17:41:36.060Z,4.40
2023-03-12T17:44:04.404Z,4.40
2023-03-12T17:46:32.757Z,4.40
2023-03-12T17:49:01.250Z,4.40
2023-03-12T17:51:29.355Z,4.50
2023-03-12T17:53:57.977Z,4.60
2023-03-12T17:56:27.642Z,4.60
2023-03-12T17:58:55.719Z,4.90
2023-03-12T18:01:24.242Z,4.80
2023-03-12T18:03:52.283Z,4.80
2023-03-12T18:06:20.419Z,4.80
2023-03-12T18:08:48.547Z,4.80
2023-03-12T18:11:16.833Z,4.70
2023-03-12T18:13:48.097Z,4.80
2023-03-12T18:16:16.975Z,4.90
2023-03-12T18:18:45.079Z,4.90
2023-03-12T18:21:13.213Z,5.00
2023-03-12T18:23:42.597Z,5.00
2023-03-12T18:26:10.845Z,5.00
2023-03-12T18:28:38.978Z,5.00
2023-03-12T18:31:08.395Z,5.00
2023-03-12T18:33:38.012Z,5.20
2023-03-12T18:36:06.699Z,5.10
2023-03-12T18:38:35.558Z,5.10
2023-03-12T18:41:05.468Z,5.10
2023-03-12T18:43:34.169Z,5.20
2023-03-12T18:46:02.240Z,5.30
2023-03-12T18:48:31.780Z,5.20
2023-03-12T18:50:59.861Z,5.30
2023-03-12T18:53:28.824Z,5.30
2023-03-12T18:55:58.466Z,5.30
2023-03-12T18:58:28.288Z,5.40
2023-03-12T19:00:58.128Z,5.50
2023-03-12T19:03:27.297Z,5.50
2023-03-12T19:06:04.391Z,5.60
2023-03-12T19:08:32.520Z,5.70
2023-03-12T19:11:00.582Z,5.80
2023-03-12T19:13:28.657Z,5.90
2023-03-12T19:16:00.425Z,5.90
2023-03-12T19:18:28.992Z,5.90
2023-03-12T19:20:57.223Z,5.90
2023-03-12T19:23:26.663Z,6.00
2023-03-12T19:25:54.756Z,6.00
2023-03-12T19:28:22.974Z,6.00
2023-03-12T19:30:51.005Z,6.00
2023-03-12T19:33:19.177Z,6.00
2023-03-12T19:35:47.343Z,6.00
2023-03-12T19:38:15.402Z,6.10
2023-03-12T19:40:50.010Z,6.10
2023-03-12T19:43:18.440Z,6.10
2023-03-12T19:45:46.898Z,6.10
2023-03-12T19:48:15.995Z,6.20
2023-03-12T19:50:44.940Z,6.20
2023-03-12T19:53:13.245Z,6.30
2023-03-12T19:55:41.295Z,6.40
2023-03-12T19:58:10.695Z,6.30
2023-03-12T20:00:38.752Z,6.30
2023-03-12T20:03:06.912Z,6.30
2023-03-12T20:05:34.996Z,6.40
2023-03-12T20:08:03.012Z,6.40
2023-03-12T20:10:32.322Z,6.40
2023-03-12T20:13:00.490Z,6.40
2023-03-12T20:15:29.977Z,6.50
2023-03-12T20:17:58.416Z,6.50
2023-03-12T20:20:26.745Z,6.40
2023-03-12T20:22:54.820Z,6.50
2023-03-12T20:25:22.930Z,6.60
2023-03-12T20:27:51.012Z,6.50
2023-03-12T20:30:19.856Z,6.50
2023-03-12T20:32:49.392Z,6.50
2023-03-12T20:35:17.704Z,6.60
2023-03-12T20:37:45.773Z,6.70
2023-03-12T20:40:14.482Z,6.70
2023-03-12T20:42:43.310Z,6.60
2023-03-12T20:45:12.312Z,6.50
2023-03-12T20:47:40.576Z,6.60
2023-03-12T20:50:11.720Z,6.60
2023-03-12T20:52:39.805Z,6.60
2023-03-12T20:55:08.689Z,6.60
2023-03-12T20:57:36.850Z,6.60
2023-03-12T21:00:05.927Z,6.70
2023-03-12T21:02:34.033Z,6.60
2023-03-12T21:05:02.253Z,6.70
2023-03-12T21:07:31.764Z,6.60
2023-03-12T21:09:59.938Z,6.60
2023-03-12T21:12:27.985Z,6.80
2023-03-12T21:14:59.500Z,6.70
2023-03-12T21:17:27.574Z,6.70
2023-03-12T21:19:55.669Z,6.80
2023-03-12T21:22:23.741Z,6.80
2023-03-12T21:24:53.194Z,6.80
2023-03-12T21:27:21.245Z,6.90
2023-03-12T21:29:49.395Z,6.90
2023-03-12T21:32:17.704Z,6.80
2023-03-12T21:34:45.828Z,6.80
2023-03-12T21:37:14.027Z,6.80
2023-03-12T21:39:42.117Z,6.80
2023-03-12T21:42:11.793Z,6.80
2023-03-12T21:44:39.828Z,6.70
2023-03-12T21:47:08.272Z,6.70
2023-03-12T21:49:37.178Z,6.70
2023-03-12T21:52:06.052Z,6.70
2023-03-12T21:54:35.047Z,6.70
2023-03-12T21:57:03.521Z,6.70
2023-03-12T21:59:33.388Z,6.70
2023-03-12T22:02:01.443Z,6.80
2023-03-12T22:04:29.843Z,6.80
2023-03-12T22:06:58.012Z,6.70
2023-03-12T22:09:26.176Z,6.80
2023-03-12T22:11:54.247Z,6.80
2023-03-12T22:14:23.461Z,6.80
2023-03-12T22:16:52.860Z,6.80
2023-03-12T22:19:21.501Z,6.80
2023-03-12T22:21:49.524Z,6.80
2023-03-12T22:24:17.578Z,6.80
2023-03-12T22:26:47.267Z,6.70
2023-03-12T22:29:15.320Z,6.80
2023-03-12T22:31:43.454Z,6.70
2023-03-12T22:34:12.951Z,6.70
2023-03-12T22:36:41.111Z,6.70
2023-03-12T22:39:09.169Z,6.70
2023-03-12T22:41:37.259Z,6.70
2023-03-12T22:44:07.716Z,6.80
2023-03-12T22:46:36.263Z,6.80
2023-03-12T22:49:05.907Z,6.80
2023-03-12T22:51:35.397Z,6.90
2023-03-12T22:54:03.513Z,6.90
2023-03-12T22:56:31.549Z,6.80
2023-03-12T22:58:59.626Z,6.90
2023-03-12T23:01:27.773Z,6.80
2023-03-12T23:03:55.895Z,6.80
2023-03-12T23:06:25.914Z,6.80
2023-03-12T23:08:55.762Z,6.90
2023-03-12T23:11:26.147Z,6.80
2023-03-12T23:13:55.044Z,6.90
2023-03-12T23:16:25.240Z,6.90
2023-03-12T23:18:53.852Z,6.80
2023-03-12T23:21:24.172Z,6.90
2023-03-12T23:23:52.779Z,7.00
2023-03-12T23:26:24.244Z,7.00
2023-03-12T23:28:53.467Z,6.90
2023-03-12T23:31:22.294Z,7.00
2023-03-12T23:33:50.818Z,7.00
2023-03-12T23:36:20.880Z,7.00
2023-03-12T23:38:49.909Z,7.00
2023-03-12T23:41:25.334Z,7.00
2023-03-12T23:43:54.104Z,7.10
2023-03-12T23:46:22.906Z,7.10
2023-03-12T23:48:51.538Z,7.10
2023-03-12T23:51:21.465Z,7.20
2023-03-12T23:53:51.275Z,7.10
2023-03-12T23:56:21.012Z,7.10
2023-03-12T23:58:51.615Z,7.10
